sensor_id;sensor_type;location;lat;lon;timestamp;temperature;humidity
6740;DHT22;3407;49.882;10.920;2022-12-18T00:02:24;-10.90;1.00
6740;DHT22;3407;49.882;10.920;2022-12-18T00:07:20;-11.10;48.70
6740;DHT22;3407;49.882;10.920;2022-12-18T00:12:15;-11.20;1.00
6740;DHT22;3407;49.882;10.920;2022-12-18T00:17:11;-11.20;99.90
6740;DHT22;3407;49.882;10.920;2022-12-18T00:22:07;-11.20;99.90
6740;DHT22;3407;49.882;10.920;2022-12-18T00:27:02;-11.20;99.90
6740;DHT22;3407;49.882;10.920;2022-12-18T00:31:58;-11.20;1.00
6740;DHT22;3407;49.882;10.920;2022-12-18T00:36:53;-11.30;1.00
6740;DHT22;3407;49.882;10.920;2022-12-18T00:41:49;-11.30;1.00
6740;DHT22;3407;49.882;10.920;2022-12-18T00:47:03;-11.30;1.00
6740;DHT22;3407;49.882;10.920;2022-12-18T00:51:58;-11.30;1.00
6740;DHT22;3407;49.882;10.920;2022-12-18T00:56:54;-11.20;31.60
6740;DHT22;3407;49.882;10.920;2022-12-18T01:01:50;-11.30;1.00
6740;DHT22;3407;49.882;10.920;2022-12-18T01:06:46;-11.40;1.00
6740;DHT22;3407;49.882;10.920;2022-12-18T01:11:41;-11.40;98.00
6740;DHT22;3407;49.882;10.920;2022-12-18T01:16:37;-11.40;99.90
6740;DHT22;3407;49.882;10.920;2022-12-18T01:21:33;-11.40;99.90
6740;DHT22;3407;49.882;10.920;2022-12-18T01:26:28;-11.40;99.90
6740;DHT22;3407;49.882;10.920;2022-12-18T01:31:30;-11.40;99.90
6740;DHT22;3407;49.882;10.920;2022-12-18T01:36:28;-11.50;99.90
6740;DHT22;3407;49.882;10.920;2022-12-18T01:41:26;-11.50;99.90
6740;DHT22;3407;49.882;10.920;2022-12-18T01:46:43;-11.50;99.90
6740;DHT22;3407;49.882;10.920;2022-12-18T01:51:38;-11.40;99.90
6740;DHT22;3407;49.882;10.920;2022-12-18T01:56:34;-11.50;1.00
6740;DHT22;3407;49.882;10.920;2022-12-18T02:01:30;-11.50;93.60
6740;DHT22;3407;49.882;10.920;2022-12-18T02:06:38;-11.40;1.00
6740;DHT22;3407;49.882;10.920;2022-12-18T02:11:52;-11.20;1.00
6740;DHT22;3407;49.882;10.920;2022-12-18T02:17:01;-11.30;1.00
6740;DHT22;3407;49.882;10.920;2022-12-18T02:27:06;-11.40;1.00
6740;DHT22;3407;49.882;10.920;2022-12-18T02:32:06;-11.40;1.00
6740;DHT22;3407;49.882;10.920;2022-12-18T02:37:05;-11.30;1.00
6740;DHT22;3407;49.882;10.920;2022-12-18T02:42:03;-11.30;1.00
6740;DHT22;3407;49.882;10.920;2022-12-18T02:47:03;-11.40;22.30
6740;DHT22;3407;49.882;10.920;2022-12-18T02:52:14;-11.50;32.10
6740;DHT22;3407;49.882;10.920;2022-12-18T02:57:19;-11.50;1.00
6740;DHT22;3407;49.882;10.920;2022-12-18T03:02:26;-11.60;1.00
6740;DHT22;3407;49.882;10.920;2022-12-18T03:07:33;-11.70;1.00
6740;DHT22;3407;49.882;10.920;2022-12-18T03:12:36;-11.80;1.00
6740;DHT22;3407;49.882;10.920;2022-12-18T03:17:34;-11.90;99.90
6740;DHT22;3407;49.882;10.920;2022-12-18T03:22:32;-11.90;1.00
6740;DHT22;3407;49.882;10.920;2022-12-18T03:27:29;-11.80;1.00
6740;DHT22;3407;49.882;10.920;2022-12-18T03:32:31;-11.80;1.00
6740;DHT22;3407;49.882;10.920;2022-12-18T03:37:28;-11.70;99.90
6740;DHT22;3407;49.882;10.920;2022-12-18T03:48:05;-11.80;99.90
6740;DHT22;3407;49.882;10.920;2022-12-18T03:58:27;-11.90;42.20
6740;DHT22;3407;49.882;10.920;2022-12-18T04:03:24;-12.10;99.90
6740;DHT22;3407;49.882;10.920;2022-12-18T04:08:21;-12.00;1.00
6740;DHT22;3407;49.882;10.920;2022-12-18T04:13:34;-11.90;1.00
6740;DHT22;3407;49.882;10.920;2022-12-18T04:18:30;-11.80;1.00
6740;DHT22;3407;49.882;10.920;2022-12-18T04:23:26;-11.80;99.90
6740;DHT22;3407;49.882;10.920;2022-12-18T04:28:21;-11.70;99.90
6740;DHT22;3407;49.882;10.920;2022-12-18T04:33:17;-11.70;99.90
6740;DHT22;3407;49.882;10.920;2022-12-18T04:38:13;-11.70;99.90
6740;DHT22;3407;49.882;10.920;2022-12-18T04:43:08;-11.80;99.90
6740;DHT22;3407;49.882;10.920;2022-12-18T04:48:04;-11.80;1.00
6740;DHT22;3407;49.882;10.920;2022-12-18T04:53:00;-11.90;1.00
6740;DHT22;3407;49.882;10.920;2022-12-18T04:57:55;-11.90;1.00
6740;DHT22;3407;49.882;10.920;2022-12-18T05:02:51;-12.00;99.90
6740;DHT22;3407;49.882;10.920;2022-12-18T05:07:46;-12.10;99.90
6740;DHT22;3407;49.882;10.920;2022-12-18T05:12:42;-12.10;99.90
6740;DHT22;3407;49.882;10.920;2022-12-18T05:17:57;-12.00;99.90
6740;DHT22;3407;49.882;10.920;2022-12-18T05:22:53;-12.10;55.90
6740;DHT22;3407;49.882;10.920;2022-12-18T05:27:49;-12.20;95.80
6740;DHT22;3407;49.882;10.920;2022-12-18T05:32:44;-12.20;1.00
6740;DHT22;3407;49.882;10.920;2022-12-18T05:37:40;-12.20;32.20
6740;DHT22;3407;49.882;10.920;2022-12-18T05:42:35;-12.30;1.00
6740;DHT22;3407;49.882;10.920;2022-12-18T05:47:31;-12.40;1.00
6740;DHT22;3407;49.882;10.920;2022-12-18T05:52:26;-12.40;11.50
6740;DHT22;3407;49.882;10.920;2022-12-18T05:57:22;-12.50;1.00
6740;DHT22;3407;49.882;10.920;2022-12-18T06:02:17;-12.60;1.00
6740;DHT22;3407;49.882;10.920;2022-12-18T06:07:13;-12.70;1.00
6740;DHT22;3407;49.882;10.920;2022-12-18T06:12:08;-12.80;1.00
6740;DHT22;3407;49.882;10.920;2022-12-18T06:17:04;-12.70;99.90
6740;DHT22;3407;49.882;10.920;2022-12-18T06:21:59;-12.80;30.60
6740;DHT22;3407;49.882;10.920;2022-12-18T06:26:55;-12.80;1.00
6740;DHT22;3407;49.882;10.920;2022-12-18T06:31:50;-12.80;99.90
6740;DHT22;3407;49.882;10.920;2022-12-18T06:36:46;-12.80;31.60
6740;DHT22;3407;49.882;10.920;2022-12-18T06:41:41;-12.90;1.00
6740;DHT22;3407;49.882;10.920;2022-12-18T06:46:37;-13.00;99.90
6740;DHT22;3407;49.882;10.920;2022-12-18T06:51:33;-13.00;99.90
6740;DHT22;3407;49.882;10.920;2022-12-18T06:56:28;-13.00;1.00
6740;DHT22;3407;49.882;10.920;2022-12-18T07:01:24;-13.00;99.90
6740;DHT22;3407;49.882;10.920;2022-12-18T07:06:21;-12.80;1.00
6740;DHT22;3407;49.882;10.920;2022-12-18T07:11:17;-12.80;1.00
6740;DHT22;3407;49.882;10.920;2022-12-18T07:16:20;-13.00;99.90
6740;DHT22;3407;49.882;10.920;2022-12-18T07:21:18;-13.00;99.90
6740;DHT22;3407;49.882;10.920;2022-12-18T07:26:15;-13.00;1.00
6740;DHT22;3407;49.882;10.920;2022-12-18T07:31:13;-12.90;47.60
6740;DHT22;3407;49.882;10.920;2022-12-18T07:36:10;-13.00;17.60
6740;DHT22;3407;49.882;10.920;2022-12-18T07:41:08;-12.90;99.90
6740;DHT22;3407;49.882;10.920;2022-12-18T07:46:05;-12.80;79.60
6740;DHT22;3407;49.882;10.920;2022-12-18T07:51:03;-12.60;99.90
6740;DHT22;3407;49.882;10.920;2022-12-18T07:56:01;-12.40;99.90
6740;DHT22;3407;49.882;10.920;2022-12-18T08:01:08;-12.10;1.00
6740;DHT22;3407;49.882;10.920;2022-12-18T08:06:06;-11.90;99.90
6740;DHT22;3407;49.882;10.920;2022-12-18T08:11:02;-11.80;89.60
6740;DHT22;3407;49.882;10.920;2022-12-18T08:16:06;-11.80;1.00
6740;DHT22;3407;49.882;10.920;2022-12-18T08:21:14;-11.70;1.00
6740;DHT22;3407;49.882;10.920;2022-12-18T08:26:11;-11.40;99.90
6740;DHT22;3407;49.882;10.920;2022-12-18T08:31:07;-11.20;1.00
6740;DHT22;3407;49.882;10.920;2022-12-18T08:36:04;-11.00;1.00
6740;DHT22;3407;49.882;10.920;2022-12-18T08:41:01;-10.90;1.00
6740;DHT22;3407;49.882;10.920;2022-12-18T08:45:57;-10.60;1.00
6740;DHT22;3407;49.882;10.920;2022-12-18T08:50:57;-10.30;1.00
6740;DHT22;3407;49.882;10.920;2022-12-18T08:55:53;-10.00;1.00
6740;DHT22;3407;49.882;10.920;2022-12-18T09:00:48;-9.60;59.90
6740;DHT22;3407;49.882;10.920;2022-12-18T09:05:45;-9.20;1.00
6740;DHT22;3407;49.882;10.920;2022-12-18T09:10:43;-8.90;1.00
6740;DHT22;3407;49.882;10.920;2022-12-18T09:15:46;-8.70;1.00
6740;DHT22;3407;49.882;10.920;2022-12-18T09:20:42;-8.40;97.90
6740;DHT22;3407;49.882;10.920;2022-12-18T09:25:38;-8.10;99.90
6740;DHT22;3407;49.882;10.920;2022-12-18T09:30:37;-7.90;99.90
6740;DHT22;3407;49.882;10.920;2022-12-18T09:35:41;-7.80;99.90
6740;DHT22;3407;49.882;10.920;2022-12-18T09:40:49;-7.60;1.00
6740;DHT22;3407;49.882;10.920;2022-12-18T09:45:49;-7.50;99.90
6740;DHT22;3407;49.882;10.920;2022-12-18T09:50:47;-7.30;1.00
6740;DHT22;3407;49.882;10.920;2022-12-18T09:55:45;-7.00;1.00
6740;DHT22;3407;49.882;10.920;2022-12-18T10:00:41;-6.70;1.00
6740;DHT22;3407;49.882;10.920;2022-12-18T10:10:46;-6.30;1.00
6740;DHT22;3407;49.882;10.920;2022-12-18T10:21:02;-5.70;1.00
6740;DHT22;3407;49.882;10.920;2022-12-18T10:26:00;-5.10;99.90
6740;DHT22;3407;49.882;10.920;2022-12-18T10:30:58;-4.70;1.00
6740;DHT22;3407;49.882;10.920;2022-12-18T10:35:54;-4.50;99.90
6740;DHT22;3407;49.882;10.920;2022-12-18T10:41:00;-4.10;99.90
6740;DHT22;3407;49.882;10.920;2022-12-18T10:51:03;-3.50;63.30
6740;DHT22;3407;49.882;10.920;2022-12-18T10:55:59;-3.50;1.00
6740;DHT22;3407;49.882;10.920;2022-12-18T11:01:11;-3.30;1.00
6740;DHT22;3407;49.882;10.920;2022-12-18T11:06:13;-2.90;1.00
6740;DHT22;3407;49.882;10.920;2022-12-18T11:11:21;-3.00;1.00
6740;DHT22;3407;49.882;10.920;2022-12-18T11:16:20;-2.90;1.00
6740;DHT22;3407;49.882;10.920;2022-12-18T11:21:16;-2.40;1.00
6740;DHT22;3407;49.882;10.920;2022-12-18T11:26:12;-1.90;1.00
6740;DHT22;3407;49.882;10.920;2022-12-18T11:31:26;-1.20;1.00
6740;DHT22;3407;49.882;10.920;2022-12-18T11:36:23;-0.40;1.00
6740;DHT22;3407;49.882;10.920;2022-12-18T11:41:38;-0.20;99.90
6740;DHT22;3407;49.882;10.920;2022-12-18T11:47:13;0.30;99.90
6740;DHT22;3407;49.882;10.920;2022-12-18T11:52:18;0.50;99.90
6740;DHT22;3407;49.882;10.920;2022-12-18T12:13:00;-0.60;99.90
6740;DHT22;3407;49.882;10.920;2022-12-18T12:18:14;-0.90;99.90
6740;DHT22;3407;49.882;10.920;2022-12-18T12:23:34;-1.00;99.90
6740;DHT22;3407;49.882;10.920;2022-12-18T12:39:30;-1.30;1.00
6740;DHT22;3407;49.882;10.920;2022-12-18T12:44:56;-1.20;1.00
6740;DHT22;3407;49.882;10.920;2022-12-18T12:49:54;-1.00;1.00
6740;DHT22;3407;49.882;10.920;2022-12-18T12:54:51;-1.00;1.00
6740;DHT22;3407;49.882;10.920;2022-12-18T13:05:16;-1.20;1.00
6740;DHT22;3407;49.882;10.920;2022-12-18T13:15:19;-1.40;1.00
6740;DHT22;3407;49.882;10.920;2022-12-18T13:20:16;-1.50;1.00
6740;DHT22;3407;49.882;10.920;2022-12-18T13:25:35;-2.20;32.40
6740;DHT22;3407;49.882;10.920;2022-12-18T13:45:45;-2.30;99.90
6740;DHT22;3407;49.882;10.920;2022-12-18T13:50:43;-2.30;1.00
6740;DHT22;3407;49.882;10.920;2022-12-18T13:55:44;-2.40;1.00
6740;DHT22;3407;49.882;10.920;2022-12-18T14:00:44;-2.50;1.00
6740;DHT22;3407;49.882;10.920;2022-12-18T14:05:40;-2.60;1.00
6740;DHT22;3407;49.882;10.920;2022-12-18T14:10:40;-2.70;70.40
6740;DHT22;3407;49.882;10.920;2022-12-18T14:15:42;-2.70;99.90
6740;DHT22;3407;49.882;10.920;2022-12-18T14:20:41;-2.80;1.00
6740;DHT22;3407;49.882;10.920;2022-12-18T14:25:38;-2.90;43.80
6740;DHT22;3407;49.882;10.920;2022-12-18T14:30:45;-3.00;99.90
6740;DHT22;3407;49.882;10.920;2022-12-18T14:35:43;-3.20;1.00
6740;DHT22;3407;49.882;10.920;2022-12-18T14:40:47;-3.30;1.00
6740;DHT22;3407;49.882;10.920;2022-12-18T14:45:43;-3.30;1.00
6740;DHT22;3407;49.882;10.920;2022-12-18T14:50:39;-3.40;1.00
6740;DHT22;3407;49.882;10.920;2022-12-18T14:55:35;-3.60;92.60
6740;DHT22;3407;49.882;10.920;2022-12-18T15:00:30;-3.80;1.00
6740;DHT22;3407;49.882;10.920;2022-12-18T15:05:28;-3.90;99.90
6740;DHT22;3407;49.882;10.920;2022-12-18T15:10:34;-4.10;99.90
6740;DHT22;3407;49.882;10.920;2022-12-18T15:20:31;-4.40;1.00
6740;DHT22;3407;49.882;10.920;2022-12-18T15:25:32;-4.50;54.20
6740;DHT22;3407;49.882;10.920;2022-12-18T15:30:29;-4.60;1.00
6740;DHT22;3407;49.882;10.920;2022-12-18T15:35:26;-4.70;99.90
6740;DHT22;3407;49.882;10.920;2022-12-18T15:40:23;-4.70;1.00
6740;DHT22;3407;49.882;10.920;2022-12-18T15:45:19;-4.80;1.00
6740;DHT22;3407;49.882;10.920;2022-12-18T15:50:15;-4.80;1.00
6740;DHT22;3407;49.882;10.920;2022-12-18T15:55:19;-4.80;1.00
6740;DHT22;3407;49.882;10.920;2022-12-18T16:00:35;-4.90;1.00
6740;DHT22;3407;49.882;10.920;2022-12-18T16:05:34;-5.00;59.40
6740;DHT22;3407;49.882;10.920;2022-12-18T16:10:30;-5.10;99.90
6740;DHT22;3407;49.882;10.920;2022-12-18T16:15:25;-5.10;99.90
6740;DHT22;3407;49.882;10.920;2022-12-18T16:20:22;-5.20;99.90
6740;DHT22;3407;49.882;10.920;2022-12-18T16:25:21;-5.30;99.90
6740;DHT22;3407;49.882;10.920;2022-12-18T16:30:27;-5.30;99.90
6740;DHT22;3407;49.882;10.920;2022-12-18T16:35:23;-5.40;99.90
6740;DHT22;3407;49.882;10.920;2022-12-18T16:40:19;-5.30;99.90
6740;DHT22;3407;49.882;10.920;2022-12-18T16:45:17;-5.30;1.00
6740;DHT22;3407;49.882;10.920;2022-12-18T16:50:12;-5.30;1.00
6740;DHT22;3407;49.882;10.920;2022-12-18T16:55:08;-5.30;99.90
6740;DHT22;3407;49.882;10.920;2022-12-18T17:00:05;-5.30;99.90
6740;DHT22;3407;49.882;10.920;2022-12-18T17:05:00;-5.30;1.00
6740;DHT22;3407;49.882;10.920;2022-12-18T17:09:56;-5.20;1.00
6740;DHT22;3407;49.882;10.920;2022-12-18T17:14:51;-5.20;1.00
6740;DHT22;3407;49.882;10.920;2022-12-18T17:19:47;-5.20;1.00
6740;DHT22;3407;49.882;10.920;2022-12-18T17:24:42;-5.20;1.00
6740;DHT22;3407;49.882;10.920;2022-12-18T17:29:38;-5.20;99.90
6740;DHT22;3407;49.882;10.920;2022-12-18T17:34:34;-5.30;99.90
6740;DHT22;3407;49.882;10.920;2022-12-18T17:39:30;-5.30;99.90
6740;DHT22;3407;49.882;10.920;2022-12-18T17:44:27;-5.40;99.90
6740;DHT22;3407;49.882;10.920;2022-12-18T17:49:23;-5.40;1.00
6740;DHT22;3407;49.882;10.920;2022-12-18T17:54:18;-5.50;1.00
6740;DHT22;3407;49.882;10.920;2022-12-18T17:59:14;-5.40;1.00
6740;DHT22;3407;49.882;10.920;2022-12-18T18:04:10;-5.40;1.00
6740;DHT22;3407;49.882;10.920;2022-12-18T18:09:08;-5.40;1.00
6740;DHT22;3407;49.882;10.920;2022-12-18T18:14:09;-5.40;1.00
6740;DHT22;3407;49.882;10.920;2022-12-18T18:19:08;-5.30;1.00
6740;DHT22;3407;49.882;10.920;2022-12-18T18:24:04;-5.10;1.00
6740;DHT22;3407;49.882;10.920;2022-12-18T18:29:00;-5.10;1.00
6740;DHT22;3407;49.882;10.920;2022-12-18T18:33:56;-5.00;1.00
6740;DHT22;3407;49.882;10.920;2022-12-18T18:38:52;-5.00;1.00
6740;DHT22;3407;49.882;10.920;2022-12-18T18:43:48;-5.00;1.00
6740;DHT22;3407;49.882;10.920;2022-12-18T18:48:43;-4.90;1.00
6740;DHT22;3407;49.882;10.920;2022-12-18T18:53:42;-4.90;1.00
6740;DHT22;3407;49.882;10.920;2022-12-18T18:58:38;-4.90;1.00
6740;DHT22;3407;49.882;10.920;2022-12-18T19:03:35;-4.80;1.00
6740;DHT22;3407;49.882;10.920;2022-12-18T19:08:36;-4.80;1.00
6740;DHT22;3407;49.882;10.920;2022-12-18T19:13:32;-4.80;1.00
6740;DHT22;3407;49.882;10.920;2022-12-18T19:18:28;-4.80;1.00
6740;DHT22;3407;49.882;10.920;2022-12-18T19:23:24;-4.80;1.00
6740;DHT22;3407;49.882;10.920;2022-12-18T19:28:21;-4.80;1.00
6740;DHT22;3407;49.882;10.920;2022-12-18T19:33:21;-4.70;1.00
6740;DHT22;3407;49.882;10.920;2022-12-18T19:38:17;-4.80;1.00
6740;DHT22;3407;49.882;10.920;2022-12-18T19:43:13;-4.80;1.00
6740;DHT22;3407;49.882;10.920;2022-12-18T19:48:09;-4.80;1.00
6740;DHT22;3407;49.882;10.920;2022-12-18T19:53:05;-4.80;1.00
6740;DHT22;3407;49.882;10.920;2022-12-18T19:58:00;-4.80;1.00
6740;DHT22;3407;49.882;10.920;2022-12-18T20:02:55;-4.80;1.00
6740;DHT22;3407;49.882;10.920;2022-12-18T20:07:51;-4.80;1.00
6740;DHT22;3407;49.882;10.920;2022-12-18T20:12:47;-4.80;1.00
6740;DHT22;3407;49.882;10.920;2022-12-18T20:17:42;-4.80;1.00
6740;DHT22;3407;49.882;10.920;2022-12-18T20:22:38;-4.70;1.00
6740;DHT22;3407;49.882;10.920;2022-12-18T20:27:33;-4.70;1.00
6740;DHT22;3407;49.882;10.920;2022-12-18T20:32:29;-4.70;1.00
6740;DHT22;3407;49.882;10.920;2022-12-18T20:37:25;-4.60;1.00
6740;DHT22;3407;49.882;10.920;2022-12-18T20:42:20;-4.60;1.00
6740;DHT22;3407;49.882;10.920;2022-12-18T20:47:16;-4.50;1.00
6740;DHT22;3407;49.882;10.920;2022-12-18T20:52:11;-4.50;1.00
6740;DHT22;3407;49.882;10.920;2022-12-18T20:57:07;-4.40;1.00
6740;DHT22;3407;49.882;10.920;2022-12-18T21:02:02;-4.30;1.00
6740;DHT22;3407;49.882;10.920;2022-12-18T21:06:58;-4.40;1.00
6740;DHT22;3407;49.882;10.920;2022-12-18T21:11:53;-4.50;1.00
6740;DHT22;3407;49.882;10.920;2022-12-18T21:17:12;-4.50;1.00
6740;DHT22;3407;49.882;10.920;2022-12-18T21:22:08;-4.50;1.00
6740;DHT22;3407;49.882;10.920;2022-12-18T21:27:04;-4.50;1.00
6740;DHT22;3407;49.882;10.920;2022-12-18T21:32:01;-4.40;1.00
6740;DHT22;3407;49.882;10.920;2022-12-18T21:36:58;-4.40;1.00
6740;DHT22;3407;49.882;10.920;2022-12-18T21:41:54;-4.30;1.00
6740;DHT22;3407;49.882;10.920;2022-12-18T21:47:10;-4.30;1.00
6740;DHT22;3407;49.882;10.920;2022-12-18T21:52:06;-4.30;1.00
6740;DHT22;3407;49.882;10.920;2022-12-18T21:57:04;-4.30;1.00
6740;DHT22;3407;49.882;10.920;2022-12-18T22:02:01;-4.20;1.00
6740;DHT22;3407;49.882;10.920;2022-12-18T22:06:57;-4.20;1.00
6740;DHT22;3407;49.882;10.920;2022-12-18T22:11:56;-4.20;1.00
6740;DHT22;3407;49.882;10.920;2022-12-18T22:16:52;-4.10;1.00
6740;DHT22;3407;49.882;10.920;2022-12-18T22:21:48;-4.10;1.00
6740;DHT22;3407;49.882;10.920;2022-12-18T22:26:44;-4.00;1.00
6740;DHT22;3407;49.882;10.920;2022-12-18T22:31:39;-3.90;1.00
6740;DHT22;3407;49.882;10.920;2022-12-18T22:36:40;-3.90;1.00
6740;DHT22;3407;49.882;10.920;2022-12-18T22:41:36;-3.80;1.00
6740;DHT22;3407;49.882;10.920;2022-12-18T22:46:34;-3.60;1.00
6740;DHT22;3407;49.882;10.920;2022-12-18T22:51:30;-3.60;1.00
6740;DHT22;3407;49.882;10.920;2022-12-18T22:56:26;-3.50;1.00
6740;DHT22;3407;49.882;10.920;2022-12-18T23:01:24;-3.50;1.00
6740;DHT22;3407;49.882;10.920;2022-12-18T23:06:21;-3.40;1.00
6740;DHT22;3407;49.882;10.920;2022-12-18T23:11:18;-3.40;1.00
6740;DHT22;3407;49.882;10.920;2022-12-18T23:16:16;-3.50;1.00
6740;DHT22;3407;49.882;10.920;2022-12-18T23:26:10;-3.40;1.00
6740;DHT22;3407;49.882;10.920;2022-12-18T23:36:06;-3.40;1.00
6740;DHT22;3407;49.882;10.920;2022-12-18T23:41:14;-3.30;1.00
6740;DHT22;3407;49.882;10.920;2022-12-18T23:46:25;-3.30;1.00
6740;DHT22;3407;49.882;10.920;2022-12-18T23:51:22;-3.20;1.00
6740;DHT22;3407;49.882;10.920;2022-12-18T23:56:20;-3.30;1.00
